createdAt,value
2018-10-12T00:01:12.325Z,27.40
2018-10-12T00:03:40.390Z,27.70
2018-10-12T00:06:14.543Z,22.10
2018-10-12T00:08:42.642Z,24.27
2018-10-12T00:11:10.756Z,22.20
2018-10-12T00:13:38.911Z,21.13
2018-10-12T00:16:07.092Z,18.30
2018-10-12T00:18:35.181Z,22.00
2018-10-12T00:21:03.339Z,22.00
2018-10-12T00:23:31.423Z,21.20
2018-10-12T00:25:59.575Z,21.50
2018-10-12T00:28:27.676Z,20.63
2018-10-12T00:31:09.393Z,22.13
2018-10-12T00:33:38.011Z,27.07
2018-10-12T00:36:17.600Z,20.50
2018-10-12T00:38:45.879Z,18.60
2018-10-12T00:41:14.003Z,22.97
2018-10-12T00:43:42.648Z,21.37
2018-10-12T00:46:17.992Z,22.07
2018-10-12T00:48:46.075Z,19.43
2018-10-12T00:51:17.719Z,22.53
2018-10-12T00:53:49.459Z,20.03
2018-10-12T00:56:17.630Z,17.97
2018-10-12T00:58:45.713Z,19.73
2018-10-12T01:01:13.890Z,19.47
2018-10-12T01:03:41.983Z,20.83
2018-10-12T01:06:10.100Z,18.27
2018-10-12T01:08:38.183Z,19.67
2018-10-12T01:11:06.321Z,19.17
2018-10-12T01:13:34.488Z,20.43
2018-10-12T01:16:02.589Z,22.77
2018-10-12T01:18:30.689Z,21.93
2018-10-12T01:20:58.809Z,24.33
2018-10-12T01:23:26.893Z,20.63
2018-10-12T01:25:55.039Z,23.40
2018-10-12T01:28:23.128Z,22.73
2018-10-12T01:30:51.262Z,21.63
2018-10-12T01:33:19.403Z,22.00
2018-10-12T01:35:47.473Z,23.60
2018-10-12T01:38:15.561Z,22.33
2018-10-12T01:40:43.647Z,24.03
2018-10-12T01:43:11.805Z,24.63
2018-10-12T01:45:39.905Z,20.80
2018-10-12T01:48:07.995Z,26.07
2018-10-12T01:50:36.114Z,22.97
2018-10-12T01:53:04.195Z,22.90
2018-10-12T01:55:32.299Z,27.50
2018-10-12T01:58:00.449Z,22.77
2018-10-12T02:00:28.581Z,26.30
2018-10-12T02:02:56.715Z,25.37
2018-10-12T02:05:24.844Z,27.10
2018-10-12T02:07:52.932Z,22.73
2018-10-12T02:10:21.003Z,27.80
2018-10-12T02:12:49.093Z,22.33
2018-10-12T02:15:17.173Z,23.63
2018-10-12T02:17:45.231Z,24.27
2018-10-12T02:20:13.681Z,26.07
2018-10-12T02:22:42.264Z,21.97
2018-10-12T02:25:11.172Z,22.37
2018-10-12T02:27:39.799Z,26.67
2018-10-12T02:30:08.401Z,24.03
2018-10-12T02:32:36.600Z,23.93
2018-10-12T02:35:05.104Z,23.23
2018-10-12T02:37:33.393Z,22.30
2018-10-12T02:40:01.564Z,23.10
2018-10-12T02:42:29.640Z,25.57
2018-10-12T02:44:57.721Z,24.37
2018-10-12T02:47:25.795Z,22.60
2018-10-12T02:49:53.911Z,23.07
2018-10-12T02:52:22.016Z,27.53
2018-10-12T02:54:50.113Z,25.57
2018-10-12T02:57:18.255Z,25.27
2018-10-12T02:59:46.375Z,30.00
2018-10-12T03:02:14.487Z,24.90
2018-10-12T03:04:42.609Z,24.87
2018-10-12T03:07:10.693Z,26.20
2018-10-12T03:09:38.791Z,20.80
2018-10-12T03:12:06.886Z,20.90
2018-10-12T03:14:34.967Z,20.63
2018-10-12T03:17:03.033Z,21.43
2018-10-12T03:19:31.121Z,21.23
2018-10-12T03:21:59.211Z,22.60
2018-10-12T03:24:27.292Z,23.10
2018-10-12T03:26:55.371Z,24.13
2018-10-12T03:29:23.440Z,25.07
2018-10-12T03:31:51.539Z,24.80
2018-10-12T03:34:19.974Z,22.87
2018-10-12T03:36:48.065Z,21.47
2018-10-12T03:39:16.140Z,26.80
2018-10-12T03:41:44.315Z,22.07
2018-10-12T03:44:12.399Z,23.13
2018-10-12T03:46:40.493Z,22.50
2018-10-12T03:49:08.570Z,23.53
2018-10-12T03:51:36.700Z,22.40
2018-10-12T03:54:04.818Z,24.23
2018-10-12T03:56:32.893Z,24.13
2018-10-12T03:59:00.963Z,24.87
2018-10-12T04:01:29.059Z,22.03
2018-10-12T04:03:57.153Z,25.23
2018-10-12T04:06:25.407Z,26.73
2018-10-12T04:08:53.500Z,26.13
2018-10-12T04:11:21.599Z,24.60
2018-10-12T04:13:49.704Z,24.17
2018-10-12T04:16:17.831Z,23.27
2018-10-12T04:18:45.917Z,25.40
2018-10-12T04:21:14.011Z,25.77
2018-10-12T04:23:42.167Z,29.47
2018-10-12T04:26:10.437Z,25.90
2018-10-12T04:28:38.549Z,24.00
2018-10-12T04:31:06.616Z,23.40
2018-10-12T04:33:34.700Z,29.47
2018-10-12T04:36:02.775Z,26.30
2018-10-12T04:41:17.069Z,25.40
2018-10-12T04:43:46.193Z,26.20
2018-10-12T04:46:20.603Z,29.23
2018-10-12T04:48:49.583Z,29.20
2018-10-12T04:51:22.076Z,27.67
2018-10-12T04:53:50.386Z,25.85
2018-10-12T04:56:19.568Z,27.07
2018-10-12T04:58:47.677Z,25.63
2018-10-12T05:01:15.901Z,29.10
2018-10-12T05:03:43.857Z,26.07
2018-10-12T05:06:11.957Z,29.20
2018-10-12T05:08:40.197Z,28.23
2018-10-12T05:11:08.324Z,22.63
2018-10-12T05:13:36.775Z,25.60
2018-10-12T05:16:05.650Z,26.80
2018-10-12T05:18:33.772Z,24.13
2018-10-12T05:21:02.664Z,27.55
2018-10-12T05:23:30.863Z,25.80
2018-10-12T05:25:59.468Z,28.17
2018-10-12T05:28:28.273Z,27.37
2018-10-12T05:30:56.542Z,23.12
2018-10-12T05:33:24.740Z,27.20
2018-10-12T05:35:53.119Z,24.87
2018-10-12T05:38:21.931Z,35.90
2018-10-12T05:40:50.055Z,28.83
2018-10-12T05:43:18.448Z,27.98
2018-10-12T05:45:47.250Z,30.00
2018-10-12T05:48:26.931Z,27.85
2018-10-12T05:50:55.240Z,28.30
2018-10-12T05:53:24.261Z,27.20
2018-10-12T05:55:52.425Z,26.37
2018-10-12T05:58:20.755Z,27.27
2018-10-12T06:00:49.377Z,25.77
2018-10-12T06:03:17.455Z,29.90
2018-10-12T06:05:45.550Z,26.05
2018-10-12T06:08:13.632Z,27.13
2018-10-12T06:10:41.727Z,26.48
2018-10-12T06:13:09.816Z,25.63
2018-10-12T06:15:37.926Z,33.10
2018-10-12T06:18:07.932Z,31.63
2018-10-12T06:20:36.172Z,31.30
2018-10-12T06:23:04.328Z,29.50
2018-10-12T06:25:32.494Z,27.47
2018-10-12T06:28:00.707Z,38.17
2018-10-12T06:30:28.839Z,30.30
2018-10-12T06:32:57.021Z,27.63
2018-10-12T06:35:25.418Z,28.97
2018-10-12T06:37:53.626Z,28.60
2018-10-12T06:40:21.827Z,27.97
2018-10-12T06:42:49.923Z,28.07
2018-10-12T06:45:18.047Z,25.90
2018-10-12T06:47:46.165Z,24.67
2018-10-12T06:50:14.243Z,25.50
2018-10-12T06:52:42.311Z,28.63
2018-10-12T06:55:10.431Z,28.87
2018-10-12T06:57:38.507Z,28.93
2018-10-12T07:00:06.851Z,27.17
2018-10-12T07:02:34.864Z,27.33
2018-10-12T07:05:02.965Z,28.57
2018-10-12T07:07:31.059Z,29.63
2018-10-12T07:09:59.148Z,27.80
2018-10-12T07:12:27.231Z,34.57
2018-10-12T07:14:55.323Z,33.10
2018-10-12T07:17:24.080Z,32.00
2018-10-12T07:19:52.249Z,33.47
2018-10-12T07:22:20.395Z,38.33
2018-10-12T07:24:48.493Z,37.17
2018-10-12T07:27:16.611Z,48.13
2018-10-12T07:29:45.144Z,48.53
2018-10-12T07:32:13.285Z,57.43
2018-10-12T07:34:41.392Z,54.63
2018-10-12T07:37:09.542Z,58.37
2018-10-12T07:39:37.571Z,60.30
2018-10-12T07:42:05.701Z,52.90
2018-10-12T07:44:33.783Z,54.40
2018-10-12T07:47:02.012Z,47.90
2018-10-12T07:49:40.556Z,46.60
2018-10-12T07:52:08.610Z,48.40
2018-10-12T07:54:38.350Z,51.77
2018-10-12T07:57:12.498Z,48.00
2018-10-12T07:59:41.285Z,44.50
2018-10-12T08:02:11.320Z,45.83
2018-10-12T08:04:40.567Z,47.07
2018-10-12T08:07:09.019Z,43.07
2018-10-12T08:09:37.727Z,45.10
2018-10-12T08:12:05.839Z,39.10
2018-10-12T08:17:27.911Z,47.93
2018-10-12T08:19:56.015Z,39.30
2018-10-12T08:22:24.171Z,36.57
2018-10-12T08:24:52.280Z,39.60
2018-10-12T08:27:20.449Z,41.67
2018-10-12T08:29:48.620Z,40.77
2018-10-12T08:32:16.746Z,40.03
2018-10-12T08:34:44.888Z,36.23
2018-10-12T08:37:13.045Z,36.93
2018-10-12T08:39:41.131Z,34.67
2018-10-12T08:42:09.236Z,34.87
2018-10-12T08:44:37.371Z,36.27
2018-10-12T08:47:05.544Z,35.20
2018-10-12T08:49:33.651Z,34.37
2018-10-12T08:52:01.807Z,32.83
2018-10-12T08:54:29.968Z,31.80
2018-10-12T08:56:58.055Z,34.00
2018-10-12T08:59:26.163Z,32.53
2018-10-12T09:01:54.256Z,29.00
2018-10-12T09:04:22.823Z,27.53
2018-10-12T09:06:50.932Z,29.13
2018-10-12T09:09:19.098Z,25.73
2018-10-12T09:11:47.224Z,27.10
2018-10-12T09:14:15.325Z,27.77
2018-10-12T09:16:43.408Z,32.17
2018-10-12T09:19:11.502Z,27.50
2018-10-12T09:21:39.625Z,24.90
2018-10-12T09:24:07.696Z,23.57
2018-10-12T09:26:35.898Z,26.57
2018-10-12T09:29:04.110Z,24.27
2018-10-12T09:31:32.203Z,25.93
2018-10-12T09:34:00.390Z,22.93
2018-10-12T09:36:28.576Z,21.93
2018-10-12T09:38:56.734Z,19.63
2018-10-12T09:41:24.867Z,21.07
2018-10-12T09:43:54.632Z,16.57
2018-10-12T09:46:23.019Z,19.20
2018-10-12T09:48:51.109Z,19.53
2018-10-12T09:51:19.200Z,16.10
2018-10-12T09:53:47.394Z,15.23
2018-10-12T09:56:16.540Z,14.47
2018-10-12T09:58:45.278Z,12.23
2018-10-12T10:01:18.793Z,13.40
2018-10-12T10:03:52.263Z,15.83
2018-10-12T10:06:20.412Z,15.80
2018-10-12T10:08:48.700Z,15.10
2018-10-12T10:11:16.708Z,12.53
2018-10-12T10:13:44.883Z,15.57
2018-10-12T10:16:12.973Z,13.23
2018-10-12T10:18:41.068Z,11.97
2018-10-12T10:21:09.181Z,14.50
2018-10-12T10:23:37.344Z,12.33
2018-10-12T10:26:05.455Z,13.67
2018-10-12T10:28:33.540Z,11.40
2018-10-12T10:31:01.628Z,9.80
2018-10-12T10:33:29.737Z,10.00
2018-10-12T10:35:57.825Z,6.97
2018-10-12T10:38:25.903Z,11.07
2018-10-12T10:40:54.010Z,11.17
2018-10-12T10:43:22.104Z,9.77
2018-10-12T10:45:50.208Z,10.43
2018-10-12T10:48:18.304Z,11.40
2018-10-12T10:50:46.507Z,9.47
2018-10-12T10:53:14.639Z,7.83
2018-10-12T10:55:42.809Z,9.37
2018-10-12T10:58:10.911Z,8.60
2018-10-12T11:00:38.998Z,6.70
2018-10-12T11:03:07.436Z,7.70
2018-10-12T11:05:35.517Z,7.30
2018-10-12T11:08:03.597Z,6.70
2018-10-12T11:10:31.669Z,6.30
2018-10-12T11:12:59.763Z,6.43
2018-10-12T11:15:27.814Z,10.63
2018-10-12T11:17:55.903Z,6.40
2018-10-12T11:20:24.149Z,8.60
2018-10-12T11:22:52.166Z,6.17
2018-10-12T11:25:20.254Z,10.03
2018-10-12T11:27:48.377Z,6.53
2018-10-12T11:30:16.496Z,6.70
2018-10-12T11:32:44.629Z,8.90
2018-10-12T11:35:12.739Z,6.73
2018-10-12T11:37:40.835Z,7.47
2018-10-12T11:40:08.928Z,9.90
2018-10-12T11:42:48.346Z,7.60
2018-10-12T11:45:16.478Z,6.97
2018-10-12T11:47:44.512Z,7.00
2018-10-12T11:50:12.608Z,9.17
2018-10-12T11:52:40.708Z,6.10
2018-10-12T11:55:08.819Z,5.53
2018-10-12T11:57:36.902Z,6.93
2018-10-12T12:00:05.000Z,8.80
2018-10-12T12:02:33.168Z,6.47
2018-10-12T12:05:01.275Z,9.20
2018-10-12T12:07:29.352Z,5.97
2018-10-12T12:09:57.423Z,7.20
2018-10-12T12:12:25.588Z,5.67
2018-10-12T12:14:53.688Z,5.20
2018-10-12T12:17:21.756Z,6.13
2018-10-12T12:19:49.894Z,8.57
2018-10-12T12:22:18.104Z,4.97
2018-10-12T12:24:46.214Z,7.30
2018-10-12T12:27:14.684Z,5.83
2018-10-12T12:29:42.816Z,4.93
2018-10-12T12:32:10.904Z,8.17
2018-10-12T12:34:39.118Z,8.73
2018-10-12T12:37:07.075Z,7.07
2018-10-12T12:39:35.320Z,6.20
2018-10-12T12:42:03.409Z,5.20
2018-10-12T12:44:32.015Z,3.53
2018-10-12T12:47:00.088Z,4.90
2018-10-12T12:49:28.386Z,8.53
2018-10-12T12:51:56.260Z,4.27
2018-10-12T12:54:24.852Z,4.67
2018-10-12T12:56:54.830Z,3.43
2018-10-12T12:59:22.915Z,3.80
2018-10-12T13:01:51.108Z,8.20
2018-10-12T13:04:19.270Z,3.47
2018-10-12T13:06:47.435Z,3.93
2018-10-12T13:09:15.590Z,6.03
2018-10-12T13:11:43.763Z,3.30
2018-10-12T13:14:11.857Z,7.20
2018-10-12T13:16:39.941Z,6.07
2018-10-12T13:19:08.069Z,4.57
2018-10-12T13:21:36.139Z,2.83
2018-10-12T13:24:04.292Z,7.20
2018-10-12T13:26:32.417Z,8.67
2018-10-12T13:29:00.499Z,4.50
2018-10-12T13:31:28.601Z,3.97
2018-10-12T13:33:56.695Z,7.53
2018-10-12T13:36:24.805Z,6.10
2018-10-12T13:38:52.873Z,5.60
2018-10-12T13:41:20.999Z,4.00
2018-10-12T13:43:49.100Z,4.80
2018-10-12T13:46:17.234Z,9.07
2018-10-12T13:48:45.331Z,3.67
2018-10-12T13:51:13.556Z,6.57
2018-10-12T13:53:42.936Z,3.20
2018-10-12T13:56:13.454Z,4.37
2018-10-12T13:58:41.928Z,4.67
2018-10-12T14:01:11.431Z,4.87
2018-10-12T14:03:44.853Z,3.57
2018-10-12T14:06:15.933Z,5.53
2018-10-12T14:08:45.185Z,3.30
2018-10-12T14:11:13.991Z,3.70
2018-10-12T14:13:56.812Z,8.33
2018-10-12T14:16:25.749Z,4.07
2018-10-12T14:18:55.226Z,3.30
2018-10-12T14:21:23.436Z,7.17
2018-10-12T14:23:53.882Z,6.53
2018-10-12T14:26:39.439Z,3.03
2018-10-12T14:29:16.556Z,3.53
2018-10-12T14:31:47.065Z,2.50
2018-10-12T14:34:17.163Z,2.80
2018-10-12T14:36:50.160Z,4.77
2018-10-12T14:39:20.731Z,7.57
2018-10-12T14:41:54.982Z,8.37
2018-10-12T14:44:29.212Z,4.63
2018-10-12T14:46:57.526Z,4.70
2018-10-12T14:49:25.609Z,3.57
2018-10-12T14:51:53.700Z,3.03
2018-10-12T14:54:21.903Z,3.37
2018-10-12T14:56:50.018Z,7.00
2018-10-12T14:59:18.632Z,3.77
2018-10-12T15:01:47.340Z,3.53
2018-10-12T15:04:15.588Z,2.87
2018-10-12T15:06:44.290Z,4.00
2018-10-12T15:09:13.705Z,2.57
2018-10-12T15:11:41.991Z,5.00
2018-10-12T15:14:10.359Z,3.67
2018-10-12T15:16:38.511Z,2.37
2018-10-12T15:19:06.962Z,3.10
2018-10-12T15:21:35.109Z,4.60
2018-10-12T15:24:03.147Z,2.17
2018-10-12T15:26:31.244Z,2.17
2018-10-12T15:28:59.328Z,2.77
2018-10-12T15:31:27.487Z,2.37
2018-10-12T15:33:55.564Z,3.83
2018-10-12T15:36:23.672Z,2.57
2018-10-12T15:38:51.762Z,3.17
2018-10-12T15:41:20.204Z,2.60
2018-10-12T15:43:48.533Z,3.50
2018-10-12T15:46:16.744Z,4.13
2018-10-12T15:48:44.909Z,3.73
2018-10-12T15:51:13.122Z,5.73
2018-10-12T15:53:41.075Z,3.70
2018-10-12T15:56:09.239Z,3.20
2018-10-12T15:58:37.256Z,3.30
2018-10-12T16:01:06.290Z,3.43
2018-10-12T16:03:34.380Z,6.97
2018-10-12T16:06:02.529Z,2.90
2018-10-12T16:08:30.568Z,5.77
2018-10-12T16:10:58.752Z,4.90
2018-10-12T16:13:26.912Z,5.50
2018-10-12T16:15:55.030Z,3.77
2018-10-12T16:18:23.161Z,4.33
2018-10-12T16:20:51.276Z,7.30
2018-10-12T16:23:19.335Z,5.23
2018-10-12T16:26:02.871Z,7.20
2018-10-12T16:28:30.964Z,6.43
2018-10-12T16:30:59.287Z,6.83
2018-10-12T16:33:27.372Z,7.13
2018-10-12T16:35:55.835Z,5.60
2018-10-12T16:38:24.006Z,3.77
2018-10-12T16:40:52.118Z,3.90
2018-10-12T16:43:20.219Z,4.77
2018-10-12T16:45:49.459Z,5.60
2018-10-12T16:48:17.545Z,3.67
2018-10-12T16:50:45.728Z,3.83
2018-10-12T16:53:13.956Z,5.33
2018-10-12T16:55:42.135Z,4.80
2018-10-12T16:58:11.354Z,4.27
2018-10-12T17:00:41.291Z,4.47
2018-10-12T17:03:10.519Z,5.20
2018-10-12T17:05:41.256Z,4.00
2018-10-12T17:08:10.312Z,3.00
2018-10-12T17:10:39.472Z,4.57
2018-10-12T17:13:07.966Z,5.27
2018-10-12T17:15:36.393Z,5.53
2018-10-12T17:18:09.054Z,5.20
2018-10-12T17:20:39.437Z,3.27
2018-10-12T17:23:08.240Z,2.87
2018-10-12T17:25:37.989Z,9.00
2018-10-12T17:28:08.656Z,4.47
2018-10-12T17:30:37.423Z,3.50
2018-10-12T17:33:06.995Z,2.60
2018-10-12T17:35:38.610Z,4.93
2018-10-12T17:38:08.319Z,3.30
2018-10-12T17:40:38.550Z,4.70
2018-10-12T17:43:07.261Z,5.27
2018-10-12T17:45:36.197Z,5.57
2018-10-12T17:48:06.608Z,4.03
2018-10-12T17:50:37.411Z,7.23
2018-10-12T17:53:06.320Z,5.17
2018-10-12T17:55:37.601Z,5.10
2018-10-12T17:58:07.350Z,4.87
2018-10-12T18:00:37.442Z,8.40
2018-10-12T18:03:08.224Z,3.07
2018-10-12T18:05:36.579Z,3.50
2018-10-12T18:08:05.756Z,5.23
2018-10-12T18:10:34.261Z,3.90
2018-10-12T18:13:05.235Z,6.83
2018-10-12T18:15:36.807Z,6.63
2018-10-12T18:18:06.035Z,5.30
2018-10-12T18:20:38.428Z,7.27
2018-10-12T18:23:11.779Z,5.60
2018-10-12T18:25:41.633Z,6.70
2018-10-12T18:28:11.591Z,8.27
2018-10-12T18:30:41.268Z,7.50
2018-10-12T18:33:11.375Z,6.00
2018-10-12T18:35:44.617Z,5.67
2018-10-12T18:38:14.293Z,6.23
2018-10-12T18:43:27.941Z,7.97
2018-10-12T18:45:56.562Z,5.83
2018-10-12T18:48:25.149Z,6.60
2018-10-12T18:50:53.655Z,6.27
2018-10-12T18:53:22.044Z,6.10
2018-10-12T18:55:50.499Z,5.40
2018-10-12T18:58:20.333Z,6.97
2018-10-12T19:00:50.812Z,6.50
2018-10-12T19:03:22.037Z,4.67
2018-10-12T19:05:51.380Z,5.10
2018-10-12T19:08:20.703Z,5.33
2018-10-12T19:10:50.999Z,8.50
2018-10-12T19:13:20.449Z,5.70
2018-10-12T19:15:54.649Z,6.43
2018-10-12T19:18:43.465Z,10.10
2018-10-12T19:21:12.436Z,6.67
2018-10-12T19:23:41.755Z,7.40
2018-10-12T19:26:12.869Z,7.20
2018-10-12T19:28:43.048Z,6.40
2018-10-12T19:33:51.773Z,8.93
2018-10-12T19:36:24.464Z,5.17
2018-10-12T19:38:54.230Z,5.43
2018-10-12T19:41:34.377Z,8.37
2018-10-12T19:44:03.499Z,6.23
2018-10-12T19:46:39.657Z,6.60
2018-10-12T19:49:10.474Z,8.93
2018-10-12T19:51:50.417Z,8.10
2018-10-12T19:54:23.821Z,10.90
2018-10-12T19:56:53.359Z,8.20
2018-10-12T19:59:23.845Z,8.63
2018-10-12T20:01:57.817Z,12.17
2018-10-12T20:04:26.817Z,11.60
2018-10-12T20:06:57.447Z,12.93
2018-10-12T20:09:32.799Z,10.83
2018-10-12T20:12:04.859Z,9.20
2018-10-12T20:14:34.411Z,9.33
2018-10-12T20:17:06.396Z,11.80
2018-10-12T20:19:37.174Z,10.40
2018-10-12T20:22:09.825Z,12.03
2018-10-12T20:24:56.468Z,17.07
2018-10-12T20:27:26.675Z,14.80
2018-10-12T20:29:56.096Z,13.17
2018-10-12T20:32:25.249Z,11.17
2018-10-12T20:35:00.535Z,10.57
2018-10-12T20:37:32.128Z,11.33
2018-10-12T20:40:02.356Z,11.03
2018-10-12T20:42:33.789Z,11.57
2018-10-12T20:45:03.942Z,11.70
2018-10-12T20:47:34.974Z,15.70
2018-10-12T20:50:05.101Z,11.93
2018-10-12T20:52:36.603Z,10.33
2018-10-12T20:55:08.575Z,10.20
2018-10-12T20:57:42.039Z,12.90
2018-10-12T21:00:11.964Z,9.50
2018-10-12T21:02:40.233Z,9.90
2018-10-12T21:05:09.813Z,7.63
2018-10-12T21:07:39.518Z,8.30
2018-10-12T21:10:09.693Z,7.93
2018-10-12T21:12:38.201Z,9.30
2018-10-12T21:15:09.433Z,7.40
2018-10-12T21:17:39.054Z,9.97
2018-10-12T21:20:11.352Z,9.90
2018-10-12T21:22:43.888Z,11.33
2018-10-12T21:25:14.475Z,11.23
2018-10-12T21:27:43.027Z,10.53
2018-10-12T21:30:12.521Z,10.43
2018-10-12T21:32:41.847Z,13.20
2018-10-12T21:35:10.316Z,9.30
2018-10-12T21:37:40.089Z,13.87
2018-10-12T21:40:12.817Z,10.70
2018-10-12T21:42:42.302Z,9.07
2018-10-12T21:45:13.443Z,14.20
2018-10-12T21:47:41.940Z,10.03
2018-10-12T21:50:12.620Z,11.80
2018-10-12T21:52:41.016Z,9.90
2018-10-12T21:55:09.258Z,9.50
2018-10-12T21:57:37.667Z,10.17
2018-10-12T22:00:07.165Z,10.50
2018-10-12T22:02:36.479Z,10.27
2018-10-12T22:05:05.848Z,9.30
2018-10-12T22:07:35.189Z,8.10
2018-10-12T22:10:05.791Z,15.47
2018-10-12T22:12:40.091Z,10.10
2018-10-12T22:15:11.501Z,10.80
2018-10-12T22:17:42.300Z,10.27
2018-10-12T22:20:14.452Z,9.60
2018-10-12T22:22:47.977Z,11.03
2018-10-12T22:25:17.075Z,13.73
2018-10-12T22:27:46.255Z,12.07
2018-10-12T22:30:15.348Z,14.67
2018-10-12T22:32:43.601Z,13.90
2018-10-12T22:35:15.860Z,12.33
2018-10-12T22:37:46.806Z,16.47
2018-10-12T22:40:15.510Z,12.63
2018-10-12T22:42:43.990Z,13.43
2018-10-12T22:45:13.104Z,13.00
2018-10-12T22:47:45.405Z,10.37
2018-10-12T22:50:15.738Z,11.63
2018-10-12T22:52:47.368Z,11.13
2018-10-12T22:55:16.773Z,12.20
2018-10-12T22:57:45.248Z,11.33
2018-10-12T23:00:14.994Z,11.00
2018-10-12T23:02:44.096Z,14.30
2018-10-12T23:05:18.710Z,11.83
2018-10-12T23:07:47.241Z,11.03
2018-10-12T23:10:16.121Z,10.57
2018-10-12T23:12:45.710Z,11.07
2018-10-12T23:15:14.631Z,12.30
2018-10-12T23:17:44.009Z,9.93
2018-10-12T23:20:18.630Z,11.23
2018-10-12T23:22:47.745Z,10.00
2018-10-12T23:25:16.805Z,14.20
2018-10-12T23:27:46.203Z,10.90
2018-10-12T23:30:16.245Z,10.50
2018-10-12T23:32:46.546Z,10.10
2018-10-12T23:35:15.031Z,12.90
2018-10-12T23:37:44.399Z,11.57
2018-10-12T23:40:14.302Z,10.00
2018-10-12T23:42:42.535Z,15.43
2018-10-12T23:45:12.257Z,11.70
2018-10-12T23:47:43.097Z,11.50
2018-10-12T23:50:13.305Z,9.67
2018-10-12T23:52:44.276Z,12.20
2018-10-12T23:55:45.470Z,10.90
2018-10-12T23:58:17.081Z,12.70
